Date,TemperatureHighF,TemperatureAvgF,TemperatureLowF,DewpointHighF,DewpointAvgF,DewpointLowF,HumidityHigh,HumidityAvg,HumidityLow,PressureMaxIn,PressureMinIn,WindSpeedMaxMPH,WindSpeedAvgMPH,GustSpeedMaxMPH,PrecipitationSumIn
2012-1-1,68,44,29,51,36,24,98,76,50,30.20,29.96,10,1,17,0.00
2012-1-2,42,32,19,25,15,8,89,53,28,30.20,30.01,6,2,14,0.00
2012-1-3,27,20,16,13,9,7,75,63,45,30.46,30.20,7,1,12,0.00
2012-1-4,44,28,14,18,11,2,85,55,20,30.48,30.21,5,0,9,0.00
2012-1-5,53,37,26,30,24,17,88,62,31,30.27,30.17,4,1,7,0.00
2012-1-6,62,42,28,30,24,21,86,56,24,30.22,30.09,2,0,5,0.00
2012-1-7,61,46,32,49,39,22,98,75,58,30.17,30.05,3,0,6,0.00
2012-1-8,50,45,39,49,44,39,100,98,94,30.29,30.16,3,0,4,0.00
2012-1-9,50,46,43,48,45,43,100,98,90,30.27,30.12,2,0,6,0.00
2012-1-10,55,47,40,50,46,40,100,95,81,30.18,30.01,3,0,5,0.00
2012-1-11,53,46,41,53,46,41,100,99,93,30.00,29.52,6,2,16,0.00
2012-1-12,53,43,28,47,39,16,100,89,62,29.76,29.58,7,2,16,0.00
2012-1-13,34,26,20,20,17,15,85,69,51,30.21,29.77,5,1,9,0.00
2012-1-14,43,31,18,28,19,15,90,63,38,30.32,30.20,7,1,19,0.00
2012-1-15,43,34,26,30,25,23,88,72,47,30.58,30.20,5,1,9,0.00
2012-1-16,44,36,24,32,27,22,92,72,49,30.63,30.42,4,1,10,0.00
2012-1-17,54,49,40,52,46,32,99,87,72,30.40,29.95,10,2,23,0.00
2012-1-18,49,35,28,48,29,23,96,77,55,30.17,29.98,6,1,15,0.00
2012-1-19,43,33,22,28,24,21,97,73,46,30.28,30.16,4,1,8,0.00
2012-1-20,54,40,30,42,35,26,99,84,60,30.23,30.12,6,1,9,0.00
2012-1-21,53,47,40,53,47,40,100,99,97,30.15,29.91,4,1,10,0.00
2012-1-22,46,40,35,46,40,35,100,98,94,30.34,30.16,5,1,9,0.00
2012-1-23,48,39,34,48,39,34,100,100,99,30.29,30.09,7,1,12,0.00
2012-1-24,59,44,37,45,38,30,100,81,37,30.33,30.11,5,0,10,0.00
2012-1-25,61,46,29,41,35,29,99,69,37,30.40,30.25,5,1,8,0.00
2012-1-26,63,54,47,58,51,41,100,89,68,30.25,29.71,7,2,17,0.00
2012-1-27,57,49,34,57,43,32,98,82,59,30.08,29.64,6,2,21,0.00
2012-1-28,61,39,29,38,31,18,99,76,39,30.33,30.07,8,1,8,0.00
2012-1-29,51,36,25,21,14,1,82,46,13,30.45,30.33,5,1,11,0.00
2012-1-30,56,38,25,25,20,14,89,53,22,30.53,30.39,3,0,9,0.00
2012-1-31,64,47,30,32,26,21,81,48,25,30.47,30.33,6,1,11,0.00
2012-2-1,62,52,46,52,44,28,99,76,48,30.33,30.10,5,1,11,0.00
2012-2-2,62,50,41,51,41,33,100,76,40,30.38,30.07,4,1,7,0.00
2012-2-3,56,42,29,37,30,23,98,67,29,30.53,30.38,6,1,9,0.00
2012-2-4,57,47,39,55,45,32,100,93,74,30.43,30.09,5,0,9,0.00
2012-2-5,64,52,41,55,48,39,100,86,59,30.19,30.02,3,0,7,0.00
2012-2-6,48,40,35,40,36,32,99,86,63,30.29,30.18,5,1,9,0.00
2012-2-7,58,42,33,36,31,27,93,69,35,30.27,30.17,4,1,6,0.00
2012-2-8,51,40,32,36,32,28,91,76,48,30.26,30.16,6,1,8,0.00
2012-2-9,48,36,28,31,28,24,87,73,48,30.35,30.24,5,1,10,0.00
2012-2-10,48,36,26,35,31,25,97,81,58,30.25,29.97,5,0,9,0.00
2012-2-11,38,28,17,32,20,5,92,74,52,30.25,29.87,16,2,20,0.00
2012-2-12,35,24,14,13,9,4,77,56,38,30.45,30.25,5,1,13,0.00
2012-2-13,47,33,18,18,15,13,81,52,27,30.42,30.18,5,1,8,0.00
2012-2-14,47,39,30,39,32,17,98,78,44,30.18,30.04,9,1,11,0.00
2012-2-15,60,43,30,40,32,25,100,71,26,30.36,30.18,4,1,10,0.00
2012-2-16,57,47,40,55,43,33,99,86,68,30.31,30.06,3,0,6,0.00
2012-2-17,61,48,38,44,36,25,97,69,31,30.21,30.11,4,1,6,0.00
2012-2-18,62,48,33,45,37,31,94,69,39,30.18,29.99,6,1,8,0.00
2012-2-19,47,40,33,45,39,31,99,97,91,30.02,29.73,6,1,11,0.00
2012-2-20,52,38,28,31,27,19,94,70,29,30.37,30.03,6,1,10,0.00
2012-2-21,49,39,27,40,32,24,90,78,60,30.37,30.08,9,1,14,0.00
2012-2-22,66,51,31,49,41,30,94,71,44,30.08,29.63,7,2,18,0.00
2012-2-23,70,56,41,55,49,41,100,79,49,29.72,29.61,13,2,18,0.00
2012-2-24,75,59,36,57,45,20,83,61,32,29.95,29.53,11,4,19,0.00
2012-2-25,53,39,29,25,17,12,67,44,22,30.39,29.96,8,2,19,0.00
2012-2-26,51,37,25,24,20,17,80,54,29,30.53,30.38,8,1,10,0.00
2012-2-27,63,47,29,47,37,23,85,69,53,30.51,30.36,5,0,8,0.00
2012-2-28,64,49,32,47,38,31,97,70,39,30.48,30.32,5,1,10,0.00
2012-2-29,73,59,51,58,54,48,100,87,58,30.31,29.86,14,2,22,0.00
2012-3-1,78,60,44,56,40,19,98,58,11,29.91,29.82,5,1,12,0.00
2012-3-2,60,51,41,59,47,31,99,88,61,29.96,29.73,9,1,20,0.00
2012-3-3,59,49,42,59,42,27,100,78,42,29.84,29.59,4,1,10,0.00
2012-3-4,48,39,31,35,21,12,79,51,25,30.07,29.76,8,2,11,0.00
2012-3-5,48,40,30,30,20,11,71,47,25,30.54,29.94,12,2,16,0.00
2012-3-6,53,36,23,25,21,17,88,58,27,30.70,30.54,7,1,11,0.00
2012-3-7,60,46,32,46,38,22,87,74,59,30.70,30.49,4,1,11,0.00
2012-3-8,66,58,52,55,50,47,93,76,53,30.48,30.13,7,2,13,0.00
2012-3-9,56,48,37,54,37,26,98,69,41,30.39,30.10,5,1,10,0.00
2012-3-10,57,45,34,28,22,12,77,46,18,30.58,30.39,8,1,14,0.00
2012-3-11,62,45,27,39,30,24,93,61,29,30.62,30.49,7,1,11,0.00
2012-3-12,61,54,47,53,48,38,98,82,67,30.50,30.30,6,1,14,0.03
2012-3-13,71,59,50,60,55,50,100,89,63,30.30,30.16,3,0,8,0.05
2012-3-14,78,61,45,57,48,44,100,68,32,30.32,30.20,5,0,9,0.00
2012-3-15,80,60,45,59,49,43,99,74,30,30.32,30.21,9,1,11,0.19
2012-3-16,78,59,50,61,54,50,100,85,38,30.31,30.16,5,0,7,0.13
2012-3-17,76,61,50,59,54,49,99,80,44,30.29,30.19,4,0,7,0.01
2012-3-18,72,59,50,59,54,49,100,87,59,30.36,30.21,4,0,7,0.16
2012-3-19,80,63,48,59,53,48,100,74,39,30.27,30.13,5,0,7,0.00
2012-3-20,80,66,52,58,54,50,98,69,40,30.23,30.11,5,1,10,0.00
2012-3-21,74,64,55,59,55,52,98,76,50,30.28,30.18,5,1,10,0.00
2012-3-22,72,62,54,62,58,52,99,87,65,30.27,30.17,6,0,7,0.01
2012-3-23,71,61,55,65,60,55,100,96,77,30.19,29.97,4,0,9,0.46
2012-3-24,70,61,50,61,54,41,100,81,38,29.97,29.75,6,1,10,0.29
2012-3-25,60,53,47,51,48,45,92,83,69,29.95,29.77,6,1,11,0.00
2012-3-26,74,62,52,50,47,42,88,62,33,30.12,29.93,9,2,14,0.00
2012-3-27,68,54,44,46,38,27,84,56,31,30.31,30.12,7,1,11,0.00
2012-3-28,81,63,47,55,48,39,92,61,33,30.26,29.96,7,1,15,0.00
2012-3-29,80,66,54,54,50,46,85,59,31,29.98,29.89,6,1,10,0.00
2012-3-30,79,60,49,57,50,40,98,76,31,30.03,29.88,6,1,11,0.23
2012-3-31,76,62,54,61,54,43,100,76,41,29.91,29.78,5,0,7,0.16
2012-4-1,78,59,47,58,50,44,98,75,31,29.91,29.80,4,0,6,0.01
2012-4-2,83,66,48,61,55,48,98,72,39,29.93,29.77,6,1,10,0.00
2012-4-3,78,61,54,61,57,54,99,88,56,29.99,29.91,5,1,9,0.60
2012-4-4,80,63,51,62,56,51,100,82,42,29.96,29.71,2,0,8,0.01
2012-4-5,73,58,49,61,56,49,99,92,60,29.79,29.67,4,1,13,1.66
2012-4-6,62,50,43,49,44,37,99,81,56,30.16,29.78,3,0,6,0.54
2012-4-7,72,54,34,43,36,26,98,57,19,30.33,30.16,4,1,7,0.00
2012-4-8,76,55,40,45,40,36,93,61,25,30.23,30.05,3,0,10,0.00
2012-4-9,78,59,44,40,29,13,73,38,9,30.13,29.93,6,1,8,0.00
2012-4-10,73,57,45,39,34,26,72,43,26,30.02,29.87,6,2,11,0.00
2012-4-11,59,49,38,29,23,17,53,38,20,30.19,29.92,6,2,12,0.00
2012-4-12,63,46,30,33,24,14,80,47,16,30.31,30.17,5,1,8,0.00
2012-4-13,66,50,32,37,31,27,91,54,24,30.32,30.20,5,1,11,0.00
2012-4-14,71,56,38,44,39,33,89,58,35,30.37,30.23,10,1,11,0.00
2012-4-15,81,63,44,59,51,41,91,68,40,30.25,30.16,7,1,15,0.00
2012-4-16,84,69,58,59,57,55,91,70,37,30.18,30.09,6,1,12,0.00
2012-4-17,79,64,55,59,57,54,98,80,49,30.20,30.09,3,0,8,0.78
2012-4-18,55,52,49,55,51,49,100,98,96,30.15,30.08,4,0,6,1.14
2012-4-19,64,55,49,57,53,49,100,92,74,30.13,30.03,4,0,7,0.00
2012-4-20,71,59,51,57,54,50,99,85,55,30.07,29.87,3,1,9,0.00
2012-4-21,70,60,53,61,56,52,99,87,68,29.91,29.71,3,0,5,0.04
2012-4-22,64,52,40,53,46,33,98,81,51,29.76,29.55,5,1,15,0.00
2012-4-23,52,43,38,34,29,24,77,59,35,29.83,29.64,5,1,13,0.00
2012-4-24,62,49,35,40,30,22,81,50,25,29.91,29.80,10,2,14,0.00
2012-4-25,72,56,43,59,49,41,99,78,53,29.99,29.89,5,1,10,0.04
2012-4-26,73,61,56,64,59,54,99,91,70,29.94,29.82,5,1,11,0.33
2012-4-27,76,62,54,62,57,54,100,85,50,30.09,29.91,1,0,6,0.01
2012-4-28,68,59,51,58,53,49,99,83,57,30.17,30.08,5,1,10,0.00
2012-4-29,82,64,51,65,58,50,100,82,45,30.20,30.12,3,0,7,0.00
2012-4-30,82,68,55,65,60,54,100,78,48,30.21,30.08,7,1,9,0.00
2012-5-1,84,72,64,68,64,61,90,77,48,30.14,30.04,4,0,11,0.00
2012-5-2,87,72,60,67,62,59,99,76,42,30.14,30.06,3,0,8,0.00
2012-5-3,85,69,55,64,60,54,100,75,35,30.17,30.08,3,0,7,0.00
2012-5-4,83,69,61,66,62,59,95,79,46,30.11,29.96,3,0,5,0.00
2012-5-5,82,68,58,64,60,57,98,79,48,29.99,29.87,3,0,8,0.00
2012-5-6,76,67,58,63,61,57,97,82,60,30.04,29.94,3,0,7,0.00
2012-5-7,73,66,61,62,61,59,96,82,65,30.04,29.93,5,1,10,0.00
2012-5-8,77,65,62,67,63,60,99,91,70,29.97,29.83,5,0,8,1.28
2012-5-9,64,59,49,64,58,48,100,97,81,29.89,29.75,5,0,10,0.22
2012-5-10,70,55,44,51,46,43,100,76,39,30.04,29.84,5,0,8,0.00
2012-5-11,71,56,42,52,46,41,98,74,43,30.26,30.05,4,0,6,0.00
2012-5-12,66,57,46,59,54,46,98,89,72,30.37,30.27,1,0,5,0.00
2012-5-13,59,56,52,59,56,51,100,98,96,30.30,30.11,2,0,7,0.49
2012-5-14,73,62,56,65,60,56,100,93,73,30.10,29.91,3,0,6,2.17
2012-5-15,76,63,58,66,60,56,100,91,62,30.01,29.95,4,0,5,0.00
2012-5-16,79,64,56,62,58,54,100,81,43,30.02,29.92,2,0,8,0.00
2012-5-17,76,64,53,62,57,52,98,81,53,30.06,29.96,2,0,7,0.00
2012-5-18,72,63,56,61,59,55,100,86,64,30.12,30.03,2,0,6,0.00
2012-5-19,76,63,54,63,57,51,97,81,61,30.18,30.08,3,0,5,0.00
2012-5-20,78,63,51,58,53,49,100,74,41,30.18,30.07,4,0,7,0.00
2012-5-21,83,62,50,60,55,49,98,82,38,30.09,29.94,2,0,8,0.10
2012-5-22,75,62,56,64,60,56,100,91,59,29.96,29.83,0,0,4,0.16
2012-5-23,69,63,58,65,62,58,100,96,84,29.96,29.86,1,0,3,0.08
2012-5-24,82,68,58,65,61,57,100,82,49,30.05,29.95,3,0,6,0.00
2012-5-25,84,70,57,68,62,57,100,81,48,30.15,30.05,2,0,4,0.00
2012-5-26,83,71,59,69,64,59,99,80,56,30.18,30.08,2,0,5,0.00
2012-5-27,79,70,61,67,64,61,100,83,63,30.15,30.06,3,0,6,0.00
2012-5-28,79,69,63,68,65,62,99,88,66,30.09,29.97,3,0,9,0.25
2012-5-29,79,70,64,70,66,64,100,91,64,30.02,29.84,1,0,5,0.30
2012-5-30,85,70,61,67,60,52,100,74,37,29.88,29.81,3,0,10,0.01
2012-5-31,85,68,54,69,59,52,95,76,39,29.94,29.82,6,0,9,0.00
2012-6-1,75,66,56,65,61,52,95,84,67,29.86,29.73,3,0,12,0.05
2012-6-2,72,58,48,53,49,46,95,73,46,30.00,29.84,4,1,10,0.00
2012-6-3,79,60,45,63,52,44,98,77,45,30.03,29.91,3,0,5,0.00
2012-6-4,81,66,55,63,58,53,96,78,47,29.91,29.77,3,0,6,0.00
2012-6-5,73,63,57,62,59,56,99,87,55,29.88,29.75,3,0,7,0.13
2012-6-6,65,59,55,59,57,55,100,93,80,30.05,29.87,3,0,7,0.05
2012-6-7,74,64,57,62,58,54,100,84,52,30.10,30.02,2,0,4,0.01
2012-6-8,77,64,53,63,57,52,100,80,50,30.12,30.03,3,0,6,0.00
2012-6-9,80,67,56,66,60,55,98,81,55,30.13,30.03,3,0,8,0.00
2012-6-10,66,62,60,63,60,58,99,92,85,30.17,30.07,3,0,5,0.06
2012-6-11,75,66,60,70,65,60,100,95,78,30.15,30.01,2,0,5,0.26
2012-6-12,82,70,64,73,68,64,100,92,67,30.01,29.89,3,0,4,0.21
2012-6-13,82,70,61,69,66,61,100,87,52,30.02,29.95,1,0,5,0.00
2012-6-14,77,68,62,65,61,54,99,79,58,30.17,30.01,3,0,6,0.00
2012-6-15,72,66,59,66,62,58,95,86,73,30.24,30.12,3,0,5,0.00
2012-6-16,75,64,53,64,59,52,100,85,63,30.32,30.17,4,0,7,0.00
2012-6-17,79,68,58,65,61,56,96,80,58,30.20,30.03,3,0,5,0.00
2012-6-18,81,70,61,67,63,60,98,81,59,30.13,30.02,3,0,6,0.00
2012-6-19,84,70,58,68,63,57,100,79,53,30.20,30.12,5,0,5,0.00
2012-6-20,84,72,60,69,65,59,99,80,55,30.21,30.09,2,0,6,0.00
2012-6-21,88,72,63,71,67,62,99,85,48,30.12,29.95,3,0,5,1.08
2012-6-22,84,70,64,72,68,64,100,93,56,29.98,29.90,1,0,5,0.51
2012-6-23,83,71,62,72,67,62,100,88,58,30.01,29.93,2,0,6,0.00
2012-6-24,86,73,64,72,68,63,100,85,52,30.03,29.89,2,0,5,0.00
2012-6-25,88,74,63,73,67,62,100,82,44,29.94,29.73,3,0,5,0.00
2012-6-26,77,69,59,66,59,54,94,73,49,29.91,29.77,3,0,6,0.00
2012-6-27,86,67,52,63,55,50,97,72,30,30.05,29.91,2,0,5,0.00
2012-6-28,94,74,57,69,61,56,97,69,30,30.08,29.95,1,0,9,0.00
2012-6-29,96,78,64,71,64,57,85,66,35,29.96,29.85,2,0,6,0.00
2012-6-30,98,81,66,73,68,59,96,69,28,29.94,29.86,2,0,5,0.00
2012-7-1,98,79,68,74,68,63,94,72,32,30.02,29.89,3,0,9,0.01
2012-7-2,86,74,64,72,68,64,100,83,58,30.17,29.99,6,0,13,0.43
2012-7-3,89,74,65,71,68,63,98,81,47,30.07,29.95,3,0,7,0.00
2012-7-4,91,74,66,73,69,62,96,84,39,30.04,29.96,2,0,4,0.02
2012-7-5,94,75,65,74,68,64,99,83,39,30.03,29.93,2,0,6,0.10
2012-7-6,89,74,63,71,67,62,99,80,48,30.04,29.96,2,0,5,0.11
2012-7-7,92,77,65,73,69,64,99,79,48,30.06,29.96,3,0,6,0.00
2012-7-8,92,78,67,74,70,66,98,78,53,30.02,29.87,3,0,7,0.00
2012-7-9,88,76,68,73,70,67,97,83,60,29.95,29.89,2,0,7,0.00
2012-7-10,84,72,68,75,70,68,99,93,63,30.05,29.93,2,0,5,0.11
2012-7-11,71,68,66,71,67,66,100,99,94,30.15,30.01,1,0,3,0.63
2012-7-12,66,65,62,66,65,62,100,100,100,30.19,30.10,2,0,5,0.09
2012-7-13,78,69,65,74,68,65,100,98,79,30.20,30.11,2,0,4,2.34
2012-7-14,84,73,67,73,69,67,100,91,63,30.23,30.13,2,0,6,0.16
2012-7-15,80,71,64,73,69,64,100,94,77,30.22,30.10,2,0,4,0.13
2012-7-16,89,73,65,75,69,65,100,89,51,30.14,29.99,2,0,5,0.00
2012-7-17,87,72,66,74,69,65,100,91,58,30.03,29.95,3,0,5,0.42
2012-7-18,91,72,65,74,69,65,100,91,47,30.04,29.94,4,0,5,0.51
2012-7-19,86,73,65,77,70,65,100,91,58,30.07,29.97,2,0,4,0.14
2012-7-20,79,71,66,74,70,66,100,96,82,30.01,29.92,1,0,5,0.44
2012-7-21,87,74,67,75,70,67,100,89,63,30.09,29.97,2,0,8,0.00
2012-7-22,90,75,64,75,69,64,100,83,52,30.19,30.09,4,0,7,0.00
2012-7-23,89,73,65,76,70,65,100,91,53,30.22,30.07,2,0,4,0.26
2012-7-24,89,76,68,75,71,68,100,86,61,30.10,29.92,3,0,8,0.00
2012-7-25,88,75,69,78,72,68,99,91,62,30.02,29.91,2,0,5,0.08
2012-7-26,92,78,68,77,72,68,100,83,55,29.96,29.82,3,0,6,0.00
2012-7-27,91,76,68,75,70,67,98,84,53,29.97,29.87,3,0,6,0.00
2012-7-28,90,75,66,75,69,65,100,82,47,30.03,29.93,1,0,5,0.00
2012-7-29,85,73,64,70,65,63,98,79,51,30.05,29.95,2,0,5,0.00
2012-7-30,83,73,65,71,67,63,96,83,60,30.02,29.95,2,0,6,0.00
2012-7-31,69,67,65,69,67,65,100,98,93,30.00,29.93,1,0,7,1.87
2012-8-1,88,72,61,73,67,61,100,87,53,29.99,29.88,3,0,6,0.01
2012-8-2,88,76,65,75,71,65,100,87,55,29.97,29.87,5,0,11,0.96
2012-8-3,83,72,65,75,70,64,100,91,71,30.05,29.92,3,0,10,0.00
2012-8-4,79,70,66,74,69,66,100,97,82,30.21,30.05,2,0,5,2.62
2012-8-5,84,72,65,72,69,65,100,89,65,30.24,30.12,4,0,7,0.00
2012-8-6,85,71,66,73,69,66,100,94,65,30.14,30.03,2,0,4,0.24
2012-8-7,78,71,67,74,70,67,100,96,80,30.06,29.98,1,0,3,0.03
2012-8-8,83,72,66,74,70,66,100,93,69,30.04,29.97,2,0,6,0.00
2012-8-9,80,69,65,75,68,65,100,97,80,30.02,29.87,6,0,8,0.45
2012-8-10,82,70,63,73,68,63,100,93,72,29.88,29.81,4,0,10,0.00
2012-8-11,81,70,63,70,66,61,100,90,68,29.98,29.86,2,0,6,0.04
2012-8-12,84,69,58,69,62,57,98,81,49,30.06,29.97,2,0,4,0.00
2012-8-13,81,68,57,67,62,56,100,82,51,30.08,29.97,5,0,6,0.00
2012-8-14,86,70,60,72,66,60,99,86,55,30.01,29.86,5,0,10,0.00
2012-8-15,82,69,63,70,65,61,100,87,57,30.03,29.92,2,0,4,0.00
2012-8-16,81,68,58,67,63,57,100,84,54,30.09,29.97,3,0,5,0.00
2012-8-17,78,68,59,69,65,59,100,89,67,30.05,29.88,2,0,8,0.00
2012-8-18,75,68,62,70,65,62,100,93,79,29.96,29.87,3,0,6,0.03
2012-8-19,77,68,63,69,66,63,100,93,67,29.92,29.84,1,0,3,0.43
2012-8-20,78,66,59,66,62,59,100,90,55,30.02,29.88,2,0,4,0.28
2012-8-21,77,64,55,67,60,55,100,90,58,30.12,30.01,2,0,4,0.00
2012-8-22,77,66,57,69,63,57,100,90,68,30.16,30.09,1,0,3,0.00
2012-8-23,78,67,61,69,64,61,100,91,66,30.18,30.10,2,0,6,0.28
2012-8-24,78,67,59,68,64,59,100,91,61,30.19,30.11,4,0,4,0.08
2012-8-25,80,66,57,70,63,57,100,93,65,30.20,30.10,2,0,5,0.08
2012-8-26,84,68,59,69,64,59,100,90,51,30.21,30.11,2,0,5,0.00
2012-8-27,79,68,60,70,65,59,100,88,63,30.19,30.05,3,0,5,0.00
2012-8-28,80,68,62,72,66,61,99,93,69,30.08,29.97,0,0,2,0.02
2012-8-29,80,71,66,74,69,66,100,94,75,30.03,29.95,2,0,4,0.00
2012-8-30,80,72,66,74,70,66,100,92,75,30.17,30.01,2,0,5,0.00
2012-8-31,89,73,63,75,69,63,100,87,52,30.25,30.14,3,0,5,0.00
2012-9-1,87,74,66,74,70,66,100,89,58,30.19,30.06,2,0,5,0.00
2012-9-2,82,71,65,75,70,64,100,96,69,30.09,29.95,2,0,6,1.06
2012-9-3,78,71,68,73,70,68,100,97,83,30.01,29.92,4,0,6,0.28
2012-9-4,73,69,68,71,69,68,100,99,94,29.98,29.92,1,0,5,0.38
2012-9-5,81,72,67,73,70,67,100,92,75,29.97,29.87,6,0,8,0.01
2012-9-6,84,72,66,73,69,66,100,90,66,29.98,29.88,1,0,4,0.00
2012-9-7,84,71,62,72,68,62,100,89,64,30.01,29.87,2,0,4,0.00
2012-9-8,86,66,60,75,64,59,100,95,61,29.89,29.73,7,0,9,0.06
2012-9-9,76,61,51,59,54,50,99,80,43,30.09,29.88,4,0,8,0.00
2012-9-10,78,61,49,62,55,48,100,83,43,30.20,30.08,2,0,6,0.00
2012-9-11,72,62,56,63,59,56,98,88,67,30.32,30.20,2,0,4,0.00
2012-9-12,74,62,53,63,58,53,100,88,59,30.39,30.29,3,0,6,0.00
2012-9-13,71,61,52,61,57,51,100,87,59,30.39,30.29,2,0,4,0.00
2012-9-14,77,63,55,66,59,55,100,88,56,30.32,30.20,2,0,5,0.00
2012-9-15,82,65,56,66,61,55,100,87,46,30.25,30.13,1,0,5,0.00
2012-9-16,73,65,61,68,64,61,100,98,83,30.15,30.06,4,0,4,0.14
2012-9-17,68,64,61,68,64,61,100,100,100,30.11,29.85,7,0,10,0.77
2012-9-18,67,65,58,67,65,57,100,100,97,29.91,29.71,10,1,16,2.42
2012-9-19,71,59,50,62,56,50,100,91,68,30.15,29.92,4,0,8,0.01
2012-9-20,74,62,55,62,59,55,100,90,67,30.19,30.07,2,0,7,0.00
2012-9-21,76,62,50,67,59,50,100,91,65,30.14,30.02,3,0,9,0.00
2012-9-22,83,67,59,66,61,53,100,82,43,30.06,29.93,3,0,8,0.00
2012-9-23,73,58,47,53,48,42,97,72,38,30.20,30.05,3,0,5,0.00
2012-9-24,68,53,42,51,45,40,95,76,47,30.28,30.20,3,0,5,0.00
2012-9-25,74,58,42,63,54,41,100,88,62,30.30,30.23,2,0,5,0.00
2012-9-26,77,62,51,67,58,50,100,90,66,30.27,30.18,1,0,6,0.00
2012-9-27,79,63,50,65,58,50,100,87,53,30.26,30.15,2,0,4,0.00
2012-9-28,81,65,55,69,62,55,100,90,59,30.18,30.01,2,0,5,0.00
2012-9-29,70,63,58,66,62,58,100,96,83,30.05,29.88,3,0,8,0.09
2012-9-30,65,58,52,60,56,52,100,93,76,29.96,29.88,2,0,4,0.00
2012-10-1,58,56,56,58,56,56,100,100,98,29.91,29.80,5,2,10,1.05
2012-10-2,73,65,57,67,63,57,100,94,70,30.00,29.78,4,1,11,1.63
2012-10-3,75,63,57,63,60,56,100,91,62,30.22,30.00,3,0,6,0.00
2012-10-4,74,62,55,60,58,54,100,87,57,30.29,30.21,2,0,7,0.00
2012-10-5,76,59,48,60,54,48,100,87,55,30.27,30.08,2,0,5,0.00
2012-10-6,74,59,50,63,56,50,100,89,63,30.09,29.94,2,0,6,0.00
2012-10-7,57,52,45,57,51,44,100,97,89,30.17,29.98,2,0,9,0.25
2012-10-8,47,46,44,46,44,41,98,94,86,30.25,30.16,4,0,4,0.00
2012-10-9,53,48,44,49,47,44,98,94,84,30.23,30.14,2,0,5,0.00
2012-10-10,66,53,44,54,49,43,100,88,63,30.21,30.10,4,0,7,0.00
2012-10-11,66,51,40,51,46,39,99,85,56,30.33,30.21,3,0,6,0.00
2012-10-12,69,54,46,57,51,45,100,90,65,30.36,30.25,1,0,4,0.00
2012-10-13,63,52,46,50,47,42,99,85,53,30.49,30.36,4,0,6,0.00
2012-10-14,64,56,45,61,54,44,98,94,83,30.38,30.07,2,0,7,0.00
2012-10-15,70,60,50,63,55,44,100,84,52,30.06,29.81,3,0,8,0.58
2012-10-16,67,54,45,50,45,36,93,74,34,30.02,29.92,3,0,7,0.00
2012-10-17,68,52,40,50,45,40,100,82,45,30.05,29.94,4,0,8,0.00
2012-10-18,66,56,47,59,53,45,99,92,78,29.95,29.82,5,0,9,0.00
2012-10-19,66,53,40,52,41,34,100,70,35,29.84,29.75,5,0,10,0.01
2012-10-20,65,50,40,46,42,38,94,76,49,30.04,29.83,2,0,6,0.00
2012-10-21,69,52,40,48,44,40,98,77,43,30.22,30.05,2,0,7,0.00
2012-10-22,75,55,41,53,47,41,100,79,42,30.32,30.20,4,0,6,0.00
2012-10-23,77,57,43,56,50,42,100,80,43,30.27,30.15,3,0,6,0.00
2012-10-24,76,57,44,55,49,43,100,79,39,30.27,30.14,3,0,6,0.00
2012-10-25,74,55,42,58,51,41,100,86,53,30.22,30.14,4,0,7,0.00
2012-10-26,73,61,55,60,56,53,98,84,58,30.15,29.98,2,0,8,0.00
2012-10-27,67,56,49,58,52,47,100,88,68,30.00,29.80,5,1,15,0.00
2012-10-28,58,47,39,47,43,35,94,86,67,29.86,29.78,10,1,14,0.05
2012-10-29,46,40,38,35,33,30,86,75,63,29.84,29.67,17,4,22,0.00
2012-10-30,43,39,37,33,31,28,80,73,63,29.77,29.54,7,2,20,0.00
2012-10-31,56,43,33,38,33,27,88,70,42,29.88,29.75,8,1,10,0.00
2012-11-1,58,42,33,33,26,19,84,56,24,29.99,29.87,7,1,8,0.00
2012-11-2,69,46,29,42,34,25,90,67,32,30.07,29.91,5,1,12,0.00
2012-11-3,69,51,36,45,36,31,87,62,31,30.16,30.04,5,0,6,0.00
2012-11-4,64,52,44,52,45,39,94,77,58,30.04,29.95,3,0,8,0.00
2012-11-5,57,45,35,39,33,22,95,68,26,30.12,30.03,3,0,6,0.00
2012-11-6,44,38,35,37,35,31,97,87,64,30.13,30.00,6,0,7,0.13
2012-11-7,44,40,36,42,38,35,98,94,89,30.08,29.93,2,0,7,0.17
2012-11-8,57,42,32,38,32,24,96,72,31,30.25,30.09,5,1,10,0.00
2012-11-9,64,45,30,37,32,28,96,68,28,30.38,30.25,3,0,6,0.00
2012-11-10,70,47,30,41,33,24,97,65,18,30.45,30.34,3,0,7,0.00
2012-11-11,65,50,33,53,43,31,96,77,46,30.52,30.43,8,1,16,0.00
2012-11-12,60,57,45,58,55,44,98,94,84,30.42,30.19,8,1,10,0.25
2012-11-13,51,42,30,43,34,28,97,75,46,30.45,30.26,5,1,12,0.05
2012-11-14,47,36,25,32,29,24,98,77,53,30.54,30.41,5,1,9,0.00
2012-11-15,52,39,31,41,35,30,98,86,67,30.41,30.28,3,0,7,0.19
2012-11-16,56,39,28,38,31,27,99,77,38,30.47,30.34,3,0,6,0.00
2012-11-17,54,39,27,35,28,23,99,69,30,30.56,30.47,6,0,9,0.00
2012-11-18,54,42,29,44,36,25,96,81,66,30.55,30.44,4,0,7,0.00
2012-11-19,58,45,34,51,42,33,99,92,75,30.45,30.27,3,0,5,0.00
2012-11-20,61,47,38,47,38,34,100,77,37,30.28,30.12,3,0,6,0.00
2012-11-21,63,48,36,41,37,34,95,70,43,30.26,30.17,3,0,7,0.00
2012-11-22,63,45,31,41,35,30,98,73,34,30.33,30.23,4,0,7,0.00
2012-11-23,64,46,30,47,37,30,99,75,40,30.25,30.02,4,1,8,0.00
2012-11-24,44,35,27,31,24,20,86,65,42,30.21,30.05,4,1,9,0.00
2012-11-25,53,35,23,25,21,18,88,61,27,30.26,30.13,3,0,6,0.00
2012-11-26,62,45,27,34,26,18,85,51,25,30.31,30.20,6,0,9,0.00
2012-11-27,58,48,43,46,40,26,87,74,37,30.26,30.13,5,0,9,0.01
2012-11-28,51,40,30,38,29,18,94,68,31,30.46,30.25,4,1,7,0.00
2012-11-29,56,38,24,39,31,23,96,79,50,30.55,30.42,4,0,7,0.00
2012-11-30,60,40,26,42,34,25,98,81,48,30.47,30.34,5,0,7,0.00
2012-12-1,62,45,30,47,40,30,99,84,58,30.49,30.39,4,0,9,0.00
2012-12-2,66,53,40,52,46,39,99,81,53,30.45,30.30,6,1,14,0.00
2012-12-3,70,54,40,51,46,39,98,78,50,30.37,30.28,3,0,10,0.00
2012-12-4,69,55,41,52,47,40,99,78,49,30.36,30.23,7,0,9,0.00
2012-12-5,60,55,49,55,49,39,89,80,66,30.22,30.16,3,0,5,0.01
2012-12-6,51,47,43,43,36,30,84,67,52,30.30,30.21,3,1,7,0.00
2012-12-7,58,47,41,54,44,35,98,90,74,30.23,30.04,2,0,4,0.07
2012-12-8,66,50,40,55,47,39,100,91,62,30.10,30.03,4,0,9,0.01
2012-12-9,65,56,48,58,53,48,100,91,73,30.12,30.00,3,0,10,0.01
2012-12-10,58,56,52,57,55,52,99,96,91,29.99,29.70,5,1,11,0.18
2012-12-11,51,40,34,49,35,31,93,85,70,30.21,29.77,5,1,8,0.00
2012-12-12,42,37,33,37,33,31,92,86,78,30.35,30.22,3,0,6,0.00